• Join FlightAware (Why Join?)
  • Login
  • US Flag 
01:14AM EDT


 

Airport Tracker/Info


-or-


 

Live Flight TrackerFlight Track Log ✈ N53NW ✈ 05-Jul-2013 ✈ KRMG - KSSI

Flight Track Log - Related Links

Times and Time Zones

All times are in EDT time to prevent confusion due to time zone crossing. See the N53NW flight status page for this flight to view local times or setup timezone preferences in your user account.

Time Position Orientation Groundspeed Altitude Reporting Facility
EDT Latitude Longitude Course Direction KTS MPH feet Rate Location/Type
09:39AM 34.3025 -85.1728 197° South 402 463 3,500  Level Atlanta Center
09:40AM 34.2500 -85.1922 197° South 320 368 5,900 2,400 Climbing Atlanta Center
09:41AM 34.1894 -85.2117 195° South 251 289 8,400 2,580 Climbing Atlanta Center
09:42AM 34.1222 -85.2408 200° South 243 280 11,100 2,640 Climbing Atlanta Center
09:43AM 34.0572 -85.2725 202° Southwest 250 288 13,700 2,580 Climbing Atlanta Center
09:44AM 33.9922 -85.3042 202° Southwest 256 295 16,300 2,340 Climbing Atlanta Center
09:45AM 33.9294 -85.3281 198° South 251 289 18,400 2,100 Climbing Atlanta Center
09:46AM 33.8717 -85.2772 144° Southeast 234 269 20,500 2,040 Climbing Atlanta Center
09:47AM 33.8222 -85.2067 130° Southeast 258 297 22,500 1,920 Climbing Atlanta Center
09:48AM 33.7728 -85.1333 129° Southeast 277 319 24,400 1,740 Climbing Atlanta Center
09:49AM 33.7192 -85.0528 129° Southeast 282 325 26,000 1,560 Climbing Atlanta Center
09:50AM 33.6675 -84.9797 130° Southeast 282 325 27,600 1,500 Climbing Atlanta Center
09:51AM 33.6158 -84.9044 129° Southeast 282 325 29,000 660 Climbing Atlanta Center
09:52AM 33.5581 -84.8192 129° Southeast 304 350 29,000  Level Atlanta Center
09:53AM 33.4939 -84.7239 129° Southeast 344 396 29,000  Level Atlanta Center
09:54AM 33.4275 -84.6239 128° Southeast 375 432 29,000  Level Atlanta Center
09:55AM 33.3611 -84.5264 129° Southeast 380 437 29,000  Level Atlanta Center
09:56AM 33.2947 -84.4264 128° Southeast 380 437 29,000  Level Atlanta Center
09:57AM 33.2283 -84.3269 129° Southeast 380 437 29,000  Level Atlanta Center
09:58AM 33.1617 -84.2300 129° Southeast 380 437 29,000  Level Atlanta Center
09:59AM 33.0928 -84.1281 129° Southeast 387 445 29,000  Level Atlanta Center
10:00AM 33.0261 -84.0289 129° Southeast 387 445 29,000  Level Atlanta Center
10:01AM 32.9572 -83.9347 131° Southeast 387 445 29,000  Level Atlanta Center
10:02AM 32.8881 -83.8336 129° Southeast 387 445 29,000  Level Atlanta Center
10:03AM 32.8233 -83.7372 129° Southeast 381 438 29,000  Level Atlanta Center
10:04AM 32.7561 -83.6361 128° Southeast 386 444 29,000  Level Atlanta Center
10:05AM 32.6847 -83.5378 131° Southeast 386 444 29,000  Level Atlanta Center
10:06AM 32.6175 -83.4419 130° Southeast 386 444 29,000  Level Atlanta Center
10:07AM 32.5481 -83.3389 129° Southeast 386 444 29,000 -660 Level Atlanta Center
10:09AM 32.4481 -83.1928 129° Southeast 399 459 27,400 -1,260 Descending Jacksonville Center
10:10AM 32.3836 -83.1017 130° Southeast 386 444 25,900 -1,440 Descending Jacksonville Center
10:11AM 32.3189 -83.0131 131° Southeast 363 418 24,600 -1,440 Descending Jacksonville Center
10:12AM 32.2583 -82.9244 129° Southeast 352 405 23,100 -1,500 Descending Jacksonville Center
10:13AM 32.1978 -82.8411 131° Southeast 352 405 21,700 -1,080 Descending Jacksonville Center
10:14AM 32.1372 -82.7600 131° Southeast 341 392 21,000 -360 Descending Jacksonville Center
10:15AM 32.0703 -82.6892 138° Southeast 328 377 21,000  Level Jacksonville Center
10:16AM 32.0075 -82.6181 136° Southeast 322 371 21,000  Level Jacksonville Center
10:17AM 31.9428 -82.5475 137° Southeast 317 365 21,000 -420 Level Jacksonville Center
10:18AM 31.8756 -82.4742 137° Southeast 317 365 20,200 -1,320 Descending Jacksonville Center
10:19AM 31.8086 -82.4011 137° Southeast 322 371 18,400 -1,740 Descending Jacksonville Center
10:20AM 31.7353 -82.3453 147° Southeast 317 365 16,800 -1,740 Descending Jacksonville Center
10:21AM 31.6517 -82.3189 165° South 309 356 15,000 -1,800 Descending Jacksonville Center
10:22AM 31.5700 -82.2953 166° South 304 350 13,200 -1,800 Descending Jacksonville Center
10:23AM 31.4928 -82.2714 165° South 297 342 11,400 -1,920 Descending Jacksonville Center
10:24AM 31.4133 -82.2378 160° South 283 326 9,400 -1,860 Descending Jacksonville Center
10:25AM 31.3731 -82.1697 125° Southeast 274 315 7,700 -1,740 Descending Jacksonville Center
10:26AM 31.3331 -82.0997 124° Southeast 273 314 6,000 -1,440 Descending Jacksonville Center
10:27AM 31.3014 -82.0319 119° Southeast 252 290 4,900 -1,080 Descending Jacksonville Center
10:28AM 31.2653 -81.9617 121° Southeast 232 267 3,900 -1,500 Descending Jacksonville Center
10:29AM 31.2336 -81.9061 124° Southeast 237 273 2,000 -960 Descending Jacksonville Center
10:30AM 31.2017 -81.8458 122° Southeast 221 254 2,000 -60 Level Jacksonville Center
10:31AM 31.1614 -81.7758 124° Southeast 226 260 1,900 -60 Descending Jacksonville Center
10:32AM 31.1297 -81.7156 122° Southeast 226 260 1,900  Level Jacksonville Center
10:33AM 31.0956 -81.6553 123° Southeast 226 260 1,900  Level Jacksonville Center
10:34AM 31.0639 -81.6022 125° Southeast 226 260 1,900  Level Jacksonville Center
10:35AM 31.0278 -81.5422 125° Southeast 226 260 1,900  Level Jacksonville Center